Time,TemperatureF,DewpointF,PressureIn,WindDirection,WindDirectionDegrees,WindSpeedMPH,WindSpeedGustMPH,Humidity,HourlyPrecipIn,Conditions,Clouds,dailyrainin,SoftwareType,DateUTC
2013-04-05 00:02:00,46.2,27.9,30.10,South,190,8.0,15.0,48,0.00,,---,0.00,VWS V14.00,2013-04-05 07:02:00,
2013-04-05 00:12:00,45.7,27.9,30.11,SSW,196,8.0,12.0,50,0.00,,---,0.00,VWS V14.00,2013-04-05 07:12:00,
2013-04-05 00:17:00,45.4,27.6,30.11,SSW,196,5.0,10.0,50,0.00,,---,0.00,VWS V14.00,2013-04-05 07:17:00,
2013-04-05 00:22:00,45.1,27.8,30.11,SSW,196,0.0,8.0,50,0.00,,---,0.00,VWS V14.00,2013-04-05 07:22:00,
2013-04-05 00:27:00,44.9,27.6,30.11,SSW,197,2.0,5.0,50,0.00,,---,0.00,VWS V14.00,2013-04-05 07:27:00,
2013-04-05 00:32:00,44.6,27.8,30.11,SSW,197,4.0,4.0,52,0.00,,---,0.00,VWS V14.00,2013-04-05 07:32:00,
2013-04-05 00:37:00,44.7,27.9,30.11,SSW,196,4.0,7.0,52,0.00,,---,0.00,VWS V14.00,2013-04-05 07:37:00,
2013-04-05 00:47:00,45.0,28.7,30.11,SSW,197,1.0,5.0,52,0.00,,---,0.00,VWS V14.00,2013-04-05 07:47:00,
2013-04-05 00:57:00,45.3,28.5,30.11,SSW,195,4.0,8.0,52,0.00,,---,0.00,VWS V14.00,2013-04-05 07:57:00,
2013-04-05 01:02:00,45.6,28.3,30.11,SSW,195,0.0,5.0,50,0.00,,---,0.00,VWS V14.00,2013-04-05 08:02:00,
2013-04-05 01:07:00,45.4,28.1,30.11,SSW,195,0.0,0.0,50,0.00,,---,0.00,VWS V14.00,2013-04-05 08:07:00,
2013-04-05 01:12:00,45.2,28.4,30.11,SSW,195,0.0,0.0,52,0.00,,---,0.00,VWS V14.00,2013-04-05 08:12:00,
2013-04-05 01:17:00,44.9,27.6,30.12,SSW,195,0.0,0.0,50,0.00,,---,0.00,VWS V14.00,2013-04-05 08:17:00,
2013-04-05 01:27:00,45.0,27.7,30.12,South,181,0.0,0.0,50,0.00,,---,0.00,VWS V14.00,2013-04-05 08:27:00,
2013-04-05 01:32:00,44.3,27.6,30.12,South,180,0.0,0.0,52,0.00,,---,0.00,VWS V14.00,2013-04-05 08:32:00,
2013-04-05 01:47:00,42.5,28.1,30.11,South,181,0.0,0.0,56,0.00,,---,0.00,VWS V14.00,2013-04-05 08:47:00,
2013-04-05 01:53:00,42.9,28.9,30.11,South,180,0.0,0.0,58,0.00,,---,0.00,VWS V14.00,2013-04-05 08:53:00,
2013-04-05 02:02:00,42.6,27.4,30.11,South,181,0.0,0.0,54,0.00,,---,0.00,VWS V14.00,2013-04-05 09:02:00,
2013-04-05 02:07:00,43.8,27.6,30.11,South,180,0.0,0.0,52,0.00,,---,0.00,VWS V14.00,2013-04-05 09:07:00,
2013-04-05 02:17:00,44.3,27.6,30.11,South,181,0.0,0.0,52,0.00,,---,0.00,VWS V14.00,2013-04-05 09:17:00,
2013-04-05 02:22:00,43.7,27.5,30.11,South,181,0.0,0.0,52,0.00,,---,0.00,VWS V14.00,2013-04-05 09:22:00,
2013-04-05 02:27:00,43.6,27.4,30.11,South,181,0.0,0.0,52,0.00,,---,0.00,VWS V14.00,2013-04-05 09:27:00,
2013-04-05 02:32:00,43.4,27.2,30.11,South,180,0.0,0.0,52,0.00,,---,0.00,VWS V14.00,2013-04-05 09:32:00,
2013-04-05 02:37:00,43.6,27.4,30.11,South,181,12.0,12.0,52,0.00,,---,0.00,VWS V14.00,2013-04-05 09:37:00,
2013-04-05 02:47:00,43.2,27.5,30.11,South,180,6.0,10.0,54,0.00,,---,0.00,VWS V14.00,2013-04-05 09:47:00,
2013-04-05 02:52:00,42.8,27.5,30.11,South,182,6.0,14.0,54,0.00,,---,0.00,VWS V14.00,2013-04-05 09:52:00,
2013-04-05 02:57:00,42.7,27.5,30.11,South,182,7.0,11.0,54,0.00,,---,0.00,VWS V14.00,2013-04-05 09:57:00,
2013-04-05 03:02:00,42.7,27.5,30.10,South,182,10.0,11.0,54,0.00,,---,0.00,VWS V14.00,2013-04-05 10:02:00,
2013-04-05 03:07:00,43.2,27.5,30.11,South,190,12.0,14.0,54,0.00,,---,0.00,VWS V14.00,2013-04-05 10:07:00,
2013-04-05 03:12:00,43.3,27.6,30.11,South,190,9.0,13.0,54,0.00,,---,0.00,VWS V14.00,2013-04-05 10:12:00,
2013-04-05 03:17:00,43.0,27.3,30.11,South,190,8.0,12.0,54,0.00,,---,0.00,VWS V14.00,2013-04-05 10:17:00,
2013-04-05 03:22:00,43.0,27.7,30.11,South,188,9.0,12.0,54,0.00,,---,0.00,VWS V14.00,2013-04-05 10:22:00,
2013-04-05 03:28:00,42.8,27.5,30.10,South,188,7.0,13.0,54,0.00,,---,0.00,VWS V14.00,2013-04-05 10:28:00,
2013-04-05 03:37:00,42.4,27.6,30.10,South,189,7.0,11.0,56,0.00,,---,0.00,VWS V14.00,2013-04-05 10:37:00,
2013-04-05 03:42:00,42.5,27.3,30.10,South,189,7.0,12.0,54,0.00,,---,0.00,VWS V14.00,2013-04-05 10:42:00,
2013-04-05 03:47:00,42.4,27.2,30.09,South,189,5.0,12.0,54,0.00,,---,0.00,VWS V14.00,2013-04-05 10:47:00,
2013-04-05 03:53:00,42.1,26.9,30.10,South,189,2.0,10.0,54,0.00,,---,0.00,VWS V14.00,2013-04-05 10:53:00,
2013-04-05 04:02:00,42.2,27.0,30.10,South,189,8.0,15.0,54,0.00,,---,0.00,VWS V14.00,2013-04-05 11:02:00,
2013-04-05 04:07:00,41.8,26.6,30.10,South,188,4.0,9.0,54,0.00,,---,0.00,VWS V14.00,2013-04-05 11:07:00,
2013-04-05 04:12:00,41.6,26.9,30.10,South,189,4.0,10.0,56,0.00,,---,0.00,VWS V14.00,2013-04-05 11:12:00,
2013-04-05 04:17:00,41.7,27.0,30.10,South,189,7.0,12.0,56,0.00,,---,0.00,VWS V14.00,2013-04-05 11:17:00,
2013-04-05 04:22:00,42.0,26.8,30.10,South,188,9.0,11.0,54,0.00,,---,0.00,VWS V14.00,2013-04-05 11:22:00,
2013-04-05 04:27:00,41.9,26.7,30.10,South,190,7.0,12.0,54,0.00,,---,0.00,VWS V14.00,2013-04-05 11:27:00,
2013-04-05 04:32:00,41.8,26.6,30.10,SSW,192,9.0,12.0,54,0.00,,---,0.00,VWS V14.00,2013-04-05 11:32:00,
2013-04-05 04:37:00,41.5,26.3,30.10,SSW,192,9.0,10.0,54,0.00,,---,0.00,VWS V14.00,2013-04-05 11:37:00,
2013-04-05 04:42:00,41.5,26.3,30.10,South,191,8.0,10.0,54,0.00,,---,0.00,VWS V14.00,2013-04-05 11:42:00,
2013-04-05 04:47:00,41.4,26.2,30.10,SSW,192,7.0,11.0,54,0.00,,---,0.00,VWS V14.00,2013-04-05 11:47:00,
2013-04-05 04:57:00,41.5,26.3,30.11,South,191,8.0,9.0,54,0.00,,---,0.00,VWS V14.00,2013-04-05 11:57:00,
2013-04-05 05:02:00,41.3,26.1,30.10,South,191,6.0,9.0,54,0.00,,---,0.00,VWS V14.00,2013-04-05 12:02:00,
2013-04-05 05:07:00,41.0,25.9,30.10,SSW,192,6.0,8.0,54,0.00,,---,0.00,VWS V14.00,2013-04-05 12:07:00,
2013-04-05 05:12:00,40.8,26.1,30.11,SSW,192,5.0,8.0,56,0.00,,---,0.00,VWS V14.00,2013-04-05 12:12:00,
2013-04-05 05:17:00,40.5,25.8,30.11,SSW,192,0.0,5.0,56,0.00,,---,0.00,VWS V14.00,2013-04-05 12:17:00,
2013-04-05 05:22:00,40.4,25.7,30.11,SSW,192,0.0,4.0,56,0.00,,---,0.00,VWS V14.00,2013-04-05 12:22:00,
2013-04-05 05:27:00,40.5,25.8,30.10,SSW,192,4.0,6.0,56,0.00,,---,0.00,VWS V14.00,2013-04-05 12:27:00,
2013-04-05 05:32:00,40.5,25.8,30.10,South,191,5.0,6.0,56,0.00,,---,0.00,VWS V14.00,2013-04-05 12:32:00,
2013-04-05 05:37:00,40.5,25.4,30.11,South,191,4.0,6.0,54,0.00,,---,0.00,VWS V14.00,2013-04-05 12:37:00,
2013-04-05 05:42:00,40.6,25.5,30.11,SSW,192,4.0,6.0,54,0.00,,---,0.00,VWS V14.00,2013-04-05 12:42:00,
2013-04-05 05:47:00,40.8,25.2,30.11,SSW,192,4.0,6.0,54,0.00,,---,0.00,VWS V14.00,2013-04-05 12:47:00,
2013-04-05 05:52:00,40.9,25.3,30.11,SSW,192,3.0,6.0,54,0.00,,---,0.00,VWS V14.00,2013-04-05 12:52:00,
2013-04-05 05:57:00,40.9,25.3,30.11,South,191,4.0,8.0,54,0.00,,---,0.00,VWS V14.00,2013-04-05 12:57:00,
2013-04-05 06:02:00,40.5,25.0,30.11,SSW,192,6.0,7.0,54,0.00,,---,0.00,VWS V14.00,2013-04-05 13:02:00,
2013-04-05 06:07:00,40.2,25.1,30.11,South,191,6.0,7.0,54,0.00,,---,0.00,VWS V14.00,2013-04-05 13:07:00,
2013-04-05 06:12:00,40.2,25.1,30.12,South,191,5.0,7.0,54,0.00,,---,0.00,VWS V14.00,2013-04-05 13:12:00,
2013-04-05 06:17:00,40.3,25.2,30.12,South,191,5.0,6.0,54,0.00,,---,0.00,VWS V14.00,2013-04-05 13:17:00,
2013-04-05 06:23:00,40.2,24.7,30.12,SSW,192,4.0,5.0,54,0.00,,---,0.00,VWS V14.00,2013-04-05 13:23:00,
2013-04-05 06:32:00,40.2,24.7,30.12,South,191,3.0,5.0,54,0.00,,---,0.00,VWS V14.00,2013-04-05 13:32:00,
2013-04-05 06:37:00,40.4,24.9,30.12,SSW,192,0.0,5.0,54,0.00,,---,0.00,VWS V14.00,2013-04-05 13:37:00,
2013-04-05 06:42:00,40.8,24.8,30.12,SSW,192,4.0,7.0,52,0.00,,---,0.00,VWS V14.00,2013-04-05 13:42:00,
2013-04-05 06:47:00,41.1,25.1,30.11,South,191,2.0,5.0,52,0.00,,---,0.00,VWS V14.00,2013-04-05 13:47:00,
2013-04-05 06:52:00,41.3,24.8,30.12,South,191,5.0,6.0,52,0.00,,---,0.00,VWS V14.00,2013-04-05 13:52:00,
2013-04-05 07:07:00,41.8,25.2,30.12,SSW,192,0.0,5.0,52,0.00,,---,0.00,VWS V14.00,2013-04-05 14:07:00,
2013-04-05 07:12:00,41.5,25.0,30.12,South,191,0.0,0.0,52,0.00,,---,0.00,VWS V14.00,2013-04-05 14:12:00,
2013-04-05 07:18:00,41.4,25.3,30.12,SSW,192,0.0,0.0,52,0.00,,---,0.00,VWS V14.00,2013-04-05 14:18:00,
2013-04-05 07:27:00,40.9,24.9,30.12,South,191,0.0,0.0,52,0.00,,---,0.00,VWS V14.00,2013-04-05 14:27:00,
2013-04-05 07:37:00,41.1,25.1,30.12,SSW,192,0.0,0.0,52,0.00,,---,0.00,VWS V14.00,2013-04-05 14:37:00,
2013-04-05 07:42:00,40.8,24.8,30.12,SSW,192,0.0,0.0,52,0.00,,---,0.00,VWS V14.00,2013-04-05 14:42:00,
2013-04-05 07:48:00,40.4,25.3,30.12,South,191,0.0,0.0,54,0.00,,---,0.00,VWS V14.00,2013-04-05 14:48:00,
2013-04-05 07:57:00,43.0,26.8,30.12,SSW,192,0.0,0.0,52,0.00,,---,0.00,VWS V14.00,2013-04-05 14:57:00,
2013-04-05 08:02:00,44.6,27.8,30.12,SSW,192,0.0,0.0,52,0.00,,---,0.00,VWS V14.00,2013-04-05 15:02:00,
2013-04-05 08:07:00,45.4,27.6,30.12,South,191,0.0,0.0,50,0.00,,---,0.00,VWS V14.00,2013-04-05 15:07:00,
2013-04-05 08:12:00,45.9,27.1,30.12,SSW,192,0.0,0.0,48,0.00,,---,0.00,VWS V14.00,2013-04-05 15:12:00,
2013-04-05 08:17:00,45.8,27.0,30.13,SSW,192,0.0,0.0,48,0.00,,---,0.00,VWS V14.00,2013-04-05 15:17:00,
2013-04-05 08:22:00,45.9,27.1,30.13,South,191,0.0,0.0,48,0.00,,---,0.00,VWS V14.00,2013-04-05 15:22:00,
2013-04-05 08:27:00,46.4,27.0,30.13,South,191,0.0,0.0,46,0.00,,---,0.00,VWS V14.00,2013-04-05 15:27:00,
2013-04-05 08:32:00,46.9,27.5,30.13,SSW,192,0.0,0.0,46,0.00,,---,0.00,VWS V14.00,2013-04-05 15:32:00,
2013-04-05 08:37:00,47.3,27.3,30.12,SSW,192,0.0,0.0,46,0.00,,---,0.00,VWS V14.00,2013-04-05 15:37:00,
2013-04-05 08:42:00,47.4,27.4,30.12,South,190,0.0,0.0,46,0.00,,---,0.00,VWS V14.00,2013-04-05 15:42:00,
2013-04-05 08:47:00,47.1,27.1,30.12,South,190,0.0,0.0,46,0.00,,---,0.00,VWS V14.00,2013-04-05 15:47:00,
2013-04-05 08:52:00,47.2,26.7,30.13,South,190,0.0,0.0,44,0.00,,---,0.00,VWS V14.00,2013-04-05 15:52:00,
2013-04-05 08:57:00,47.6,25.9,30.13,South,190,0.0,0.0,42,0.00,,---,0.00,VWS V14.00,2013-04-05 15:57:00,
2013-04-05 09:02:00,47.8,26.1,30.13,South,190,0.0,0.0,42,0.00,,---,0.00,VWS V14.00,2013-04-05 16:02:00,
2013-04-05 09:07:00,48.1,25.8,30.13,South,190,0.0,0.0,42,0.00,,---,0.00,VWS V14.00,2013-04-05 16:07:00,
2013-04-05 09:13:00,48.2,25.3,30.13,South,190,3.0,8.0,40,0.00,,---,0.00,VWS V14.00,2013-04-05 16:13:00,
2013-04-05 09:22:00,48.8,24.6,30.13,SSW,192,5.0,8.0,38,0.00,,---,0.00,VWS V14.00,2013-04-05 16:22:00,
2013-04-05 09:27:00,49.0,24.8,30.13,SSW,193,8.0,8.0,38,0.00,,---,0.00,VWS V14.00,2013-04-05 16:27:00,
2013-04-05 09:32:00,49.4,25.2,30.13,SSW,194,6.0,8.0,38,0.00,,---,0.00,VWS V14.00,2013-04-05 16:32:00,
2013-04-05 09:37:00,49.6,24.1,30.13,SSW,194,4.0,7.0,36,0.00,,---,0.00,VWS V14.00,2013-04-05 16:37:00,
2013-04-05 09:42:00,49.8,23.6,30.13,SSW,194,5.0,5.0,36,0.00,,---,0.00,VWS V14.00,2013-04-05 16:42:00,
2013-04-05 09:47:00,50.0,24.5,30.13,SSW,194,3.0,7.0,36,0.00,,---,0.00,VWS V14.00,2013-04-05 16:47:00,
2013-04-05 09:52:00,49.9,23.0,30.13,SSW,210,8.0,12.0,34,0.00,,---,0.00,VWS V14.00,2013-04-05 16:52:00,
2013-04-05 10:02:00,50.2,23.3,30.13,SSW,210,4.0,6.0,34,0.00,,---,0.00,VWS V14.00,2013-04-05 17:02:00,
2013-04-05 10:07:00,50.7,23.7,30.13,SSW,210,0.0,6.0,34,0.00,,---,0.00,VWS V14.00,2013-04-05 17:07:00,
2013-04-05 10:12:00,51.3,22.8,30.14,SSW,210,4.0,8.0,32,0.00,,---,0.00,VWS V14.00,2013-04-05 17:12:00,
2013-04-05 10:22:00,52.3,22.2,30.13,SSW,210,6.0,7.0,30,0.00,,---,0.00,VWS V14.00,2013-04-05 17:22:00,
2013-04-05 10:27:00,52.5,20.8,30.13,SSW,210,0.0,6.0,28,0.00,,---,0.00,VWS V14.00,2013-04-05 17:27:00,
2013-04-05 10:32:00,53.0,22.8,30.13,SSW,210,5.0,8.0,30,0.00,,---,0.00,VWS V14.00,2013-04-05 17:32:00,
2013-04-05 10:37:00,53.3,22.3,30.13,SSW,210,5.0,7.0,30,0.00,,---,0.00,VWS V14.00,2013-04-05 17:37:00,
2013-04-05 10:42:00,53.7,21.8,30.13,SSW,210,0.0,8.0,28,0.00,,---,0.00,VWS V14.00,2013-04-05 17:42:00,
2013-04-05 10:47:00,53.6,21.7,30.13,SSW,210,0.0,0.0,28,0.00,,---,0.00,VWS V14.00,2013-04-05 17:47:00,
2013-04-05 10:52:00,53.5,22.5,30.13,SSW,210,0.0,0.0,30,0.00,,---,0.00,VWS V14.00,2013-04-05 17:52:00,
2013-04-05 10:57:00,53.5,21.6,30.12,SW,229,0.0,6.0,28,0.00,,---,0.00,VWS V14.00,2013-04-05 17:57:00,
2013-04-05 11:02:00,54.0,22.9,30.12,SW,229,0.0,0.0,30,0.00,,---,0.00,VWS V14.00,2013-04-05 18:02:00,
2013-04-05 11:12:00,54.7,21.8,30.12,SW,229,0.0,0.0,28,0.00,,---,0.00,VWS V14.00,2013-04-05 18:12:00,
2013-04-05 11:17:00,54.9,22.0,30.12,SW,229,0.0,0.0,28,0.00,,---,0.00,VWS V14.00,2013-04-05 18:17:00,
2013-04-05 11:22:00,55.3,22.4,30.11,SW,229,0.0,2.0,28,0.00,,---,0.00,VWS V14.00,2013-04-05 18:22:00,
2013-04-05 11:27:00,55.9,22.9,30.11,SW,229,0.0,0.0,28,0.00,,---,0.00,VWS V14.00,2013-04-05 18:27:00,
2013-04-05 11:32:00,56.3,21.4,30.11,SW,229,0.0,0.0,26,0.00,,---,0.00,VWS V14.00,2013-04-05 18:32:00,
2013-04-05 11:37:00,56.4,22.4,30.11,SW,229,5.0,6.0,26,0.00,,---,0.00,VWS V14.00,2013-04-05 18:37:00,
2013-04-05 11:43:00,55.8,21.9,30.11,SW,229,0.0,6.0,26,0.00,,---,0.00,VWS V14.00,2013-04-05 18:43:00,
2013-04-05 11:52:00,56.4,21.5,30.11,SW,229,0.0,4.0,26,0.00,,---,0.00,VWS V14.00,2013-04-05 18:52:00,
2013-04-05 11:57:00,56.6,21.7,30.11,SW,229,0.0,0.0,26,0.00,,---,0.00,VWS V14.00,2013-04-05 18:57:00,
2013-04-05 12:02:00,57.1,21.2,30.11,SW,229,0.0,0.0,24,0.00,,---,0.00,VWS V14.00,2013-04-05 19:02:00,
2013-04-05 12:07:00,57.4,22.4,30.10,SW,229,1.0,10.0,26,0.00,,---,0.00,VWS V14.00,2013-04-05 19:07:00,
2013-04-05 12:12:00,57.9,20.9,30.10,SW,224,0.0,6.0,24,0.00,,---,0.00,VWS V14.00,2013-04-05 19:12:00,
2013-04-05 12:17:00,57.4,20.4,30.10,SW,223,0.0,7.0,24,0.00,,---,0.00,VWS V14.00,2013-04-05 19:17:00,
2013-04-05 12:22:00,57.2,20.3,30.10,SW,222,0.0,5.0,24,0.00,,---,0.00,VWS V14.00,2013-04-05 19:22:00,
2013-04-05 12:27:00,57.8,21.8,30.10,SW,222,0.0,0.0,24,0.00,,---,0.00,VWS V14.00,2013-04-05 19:27:00,
2013-04-05 12:32:00,57.7,20.7,30.10,SSW,211,0.0,7.0,24,0.00,,---,0.00,VWS V14.00,2013-04-05 19:32:00,
2013-04-05 12:42:00,59.0,22.8,30.09,SSW,211,6.0,6.0,24,0.00,,---,0.00,VWS V14.00,2013-04-05 19:42:00,
2013-04-05 12:47:00,59.0,21.8,30.09,WSW,237,6.0,12.0,24,0.00,,---,0.00,VWS V14.00,2013-04-05 19:47:00,
2013-04-05 12:52:00,58.4,21.3,30.09,WSW,240,2.0,11.0,24,0.00,,---,0.00,VWS V14.00,2013-04-05 19:52:00,
2013-04-05 12:57:00,58.0,20.9,30.09,WSW,240,0.0,11.0,24,0.00,,---,0.00,VWS V14.00,2013-04-05 19:57:00,
2013-04-05 13:02:00,58.4,21.3,30.09,WSW,240,0.0,6.0,24,0.00,,---,0.00,VWS V14.00,2013-04-05 20:02:00,
2013-04-05 13:12:00,58.7,20.5,30.09,WSW,240,0.0,10.0,22,0.00,,---,0.00,VWS V14.00,2013-04-05 20:12:00,
2013-04-05 13:22:00,58.5,21.4,30.09,WNW,292,10.0,16.0,24,0.00,,---,0.00,VWS V14.00,2013-04-05 20:22:00,
2013-04-05 13:32:00,58.0,19.9,30.09,WNW,294,1.0,14.0,22,0.00,,---,0.00,VWS V14.00,2013-04-05 20:32:00,
2013-04-05 13:37:00,57.8,20.8,30.09,WNW,294,4.0,11.0,24,0.00,,---,0.00,VWS V14.00,2013-04-05 20:37:00,
2013-04-05 13:42:00,58.4,20.2,30.08,WNW,287,6.0,15.0,22,0.00,,---,0.00,VWS V14.00,2013-04-05 20:42:00,
2013-04-05 13:47:00,59.0,21.8,30.08,WNW,288,9.0,12.0,24,0.00,,---,0.00,VWS V14.00,2013-04-05 20:47:00,
2013-04-05 13:57:00,59.0,20.8,30.08,WNW,292,8.0,16.0,22,0.00,,---,0.00,VWS V14.00,2013-04-05 20:57:00,
2013-04-05 14:07:00,59.6,21.3,30.08,WNW,292,7.0,15.0,22,0.00,,---,0.00,VWS V14.00,2013-04-05 21:07:00,
2013-04-05 14:22:00,60.7,23.2,30.08,West,277,13.0,16.0,24,0.00,,---,0.00,VWS V14.00,2013-04-05 21:22:00,
2013-04-05 14:27:00,60.2,24.8,30.08,WNW,302,15.0,19.0,26,0.00,,---,0.00,VWS V14.00,2013-04-05 21:27:00,
2013-04-05 14:32:00,59.9,24.5,30.08,NW,321,7.0,18.0,26,0.00,,---,0.00,VWS V14.00,2013-04-05 21:32:00,
2013-04-05 14:37:00,60.0,23.6,30.08,NW,321,3.0,12.0,24,0.00,,---,0.00,VWS V14.00,2013-04-05 21:37:00,
2013-04-05 14:42:00,59.7,24.3,30.08,NW,321,5.0,6.0,26,0.00,,---,0.00,VWS V14.00,2013-04-05 21:42:00,
2013-04-05 14:52:00,59.5,26.0,30.08,NW,308,9.0,13.0,28,0.00,,---,0.00,VWS V14.00,2013-04-05 21:52:00,
2013-04-05 14:57:00,60.5,26.8,30.08,West,265,10.0,16.0,28,0.00,,---,0.00,VWS V14.00,2013-04-05 21:57:00,
2013-04-05 15:02:00,61.6,27.8,30.08,WSW,250,13.0,19.0,28,0.00,,---,0.00,VWS V14.00,2013-04-05 22:02:00,
2013-04-05 15:07:00,61.8,27.9,30.07,WSW,240,10.0,18.0,28,0.00,,---,0.00,VWS V14.00,2013-04-05 22:07:00,
2013-04-05 15:17:00,60.9,27.2,30.07,SW,233,15.0,21.0,28,0.00,,---,0.00,VWS V14.00,2013-04-05 22:17:00,
2013-04-05 15:22:00,61.0,28.1,30.07,SW,233,12.0,16.0,28,0.00,,---,0.00,VWS V14.00,2013-04-05 22:22:00,
2013-04-05 15:27:00,61.4,27.6,30.07,SSW,213,13.0,21.0,28,0.00,,---,0.00,VWS V14.00,2013-04-05 22:27:00,
2013-04-05 15:32:00,60.8,27.1,30.07,SSW,213,12.0,16.0,28,0.00,,---,0.00,VWS V14.00,2013-04-05 22:32:00,
2013-04-05 15:42:00,60.1,26.5,30.08,SW,234,8.0,15.0,28,0.00,,---,0.00,VWS V14.00,2013-04-05 22:42:00,
2013-04-05 15:47:00,60.3,27.5,30.07,SW,234,15.0,15.0,28,0.00,,---,0.00,VWS V14.00,2013-04-05 22:47:00,
2013-04-05 15:57:00,59.4,27.6,30.07,SW,229,12.0,21.0,30,0.00,,---,0.00,VWS V14.00,2013-04-05 22:57:00,
2013-04-05 16:07:00,58.6,27.7,30.08,WSW,241,14.0,16.0,30,0.00,,---,0.00,VWS V14.00,2013-04-05 23:07:00,
2013-04-05 16:12:00,57.4,27.4,30.08,West,259,13.0,22.0,32,0.00,,---,0.00,VWS V14.00,2013-04-05 23:12:00,
2013-04-05 16:17:00,56.9,27.7,30.08,West,265,13.0,20.0,32,0.00,,---,0.00,VWS V14.00,2013-04-05 23:17:00,
2013-04-05 16:27:00,57.1,26.4,30.08,West,267,16.0,18.0,30,0.00,,---,0.00,VWS V14.00,2013-04-05 23:27:00,
2013-04-05 16:32:00,56.8,26.9,30.07,West,272,13.0,19.0,32,0.00,,---,0.00,VWS V14.00,2013-04-05 23:32:00,
2013-04-05 16:37:00,56.5,26.6,30.08,West,272,5.0,16.0,32,0.00,,---,0.00,VWS V14.00,2013-04-05 23:37:00,
2013-04-05 16:47:00,56.3,26.5,30.08,West,272,11.0,13.0,32,0.00,,---,0.00,VWS V14.00,2013-04-05 23:47:00,
2013-04-05 16:52:00,56.4,26.5,30.08,West,272,8.0,12.0,32,0.00,,---,0.00,VWS V14.00,2013-04-05 23:52:00,
2013-04-05 16:57:00,57.1,26.4,30.08,West,261,7.0,14.0,30,0.00,,---,0.00,VWS V14.00,2013-04-05 23:57:00,
2013-04-05 17:02:00,57.5,25.1,30.08,WSW,252,6.0,18.0,28,0.00,,---,0.00,VWS V14.00,2013-04-06 00:02:00,
2013-04-05 17:12:00,57.3,24.9,30.07,WSW,245,9.0,14.0,28,0.00,,---,0.00,VWS V14.00,2013-04-06 00:12:00,
2013-04-05 17:17:00,57.5,25.1,30.08,WSW,240,7.0,14.0,28,0.00,,---,0.00,VWS V14.00,2013-04-06 00:17:00,
2013-04-05 17:22:00,57.6,25.2,30.08,WSW,240,7.0,14.0,28,0.00,,---,0.00,VWS V14.00,2013-04-06 00:22:00,
2013-04-05 17:27:00,57.2,24.0,30.07,SW,236,14.0,19.0,28,0.00,,---,0.00,VWS V14.00,2013-04-06 00:27:00,
2013-04-05 17:37:00,56.8,24.5,30.07,SW,236,12.0,16.0,28,0.00,,---,0.00,VWS V14.00,2013-04-06 00:37:00,
2013-04-05 17:42:00,56.7,24.4,30.07,SW,236,10.0,13.0,28,0.00,,---,0.00,VWS V14.00,2013-04-06 00:42:00,
2013-04-05 17:52:00,56.7,25.2,30.07,SW,236,9.0,15.0,30,0.00,,---,0.00,VWS V14.00,2013-04-06 00:52:00,
2013-04-05 17:57:00,56.9,25.4,30.07,SW,236,9.0,18.0,30,0.00,,---,0.00,VWS V14.00,2013-04-06 00:57:00,
2013-04-05 18:02:00,57.0,24.7,30.07,SW,224,12.0,19.0,28,0.00,,---,0.00,VWS V14.00,2013-04-06 01:02:00,
2013-04-05 18:07:00,56.8,23.6,30.07,SW,223,8.0,19.0,28,0.00,,---,0.00,VWS V14.00,2013-04-06 01:07:00,
2013-04-05 18:12:00,57.3,24.9,30.07,SW,217,12.0,20.0,28,0.00,,---,0.00,VWS V14.00,2013-04-06 01:12:00,
2013-04-05 18:17:00,57.1,24.8,30.08,SW,217,16.0,18.0,28,0.00,,---,0.00,VWS V14.00,2013-04-06 01:17:00,
2013-04-05 18:22:00,57.0,23.8,30.08,SW,224,12.0,20.0,28,0.00,,---,0.00,VWS V14.00,2013-04-06 01:22:00,
2013-04-05 18:27:00,56.7,26.0,30.08,SW,227,14.0,23.0,30,0.00,,---,0.00,VWS V14.00,2013-04-06 01:27:00,
2013-04-05 18:32:00,56.9,25.4,30.08,SW,219,14.0,18.0,30,0.00,,---,0.00,VWS V14.00,2013-04-06 01:32:00,
2013-04-05 18:37:00,56.8,26.1,30.07,SW,219,10.0,19.0,30,0.00,,---,0.00,VWS V14.00,2013-04-06 01:37:00,
2013-04-05 18:42:00,56.7,25.2,30.07,SW,219,7.0,18.0,30,0.00,,---,0.00,VWS V14.00,2013-04-06 01:42:00,
2013-04-05 18:47:00,56.4,25.0,30.07,SW,215,11.0,19.0,30,0.00,,---,0.00,VWS V14.00,2013-04-06 01:47:00,
2013-04-05 18:53:00,55.7,24.4,30.07,SSW,213,13.0,23.0,30,0.00,,---,0.00,VWS V14.00,2013-04-06 01:53:00,
2013-04-05 19:02:00,54.1,23.8,30.07,SSW,205,11.0,19.0,30,0.00,,---,0.00,VWS V14.00,2013-04-06 02:02:00,
2013-04-05 19:07:00,53.1,23.7,30.07,SSW,211,15.0,22.0,32,0.00,,---,0.00,VWS V14.00,2013-04-06 02:07:00,
2013-04-05 19:12:00,52.4,23.8,30.08,SSW,211,8.0,21.0,32,0.00,,---,0.00,VWS V14.00,2013-04-06 02:12:00,
2013-04-05 19:17:00,52.0,24.2,30.08,SSW,209,19.0,19.0,34,0.00,,---,0.00,VWS V14.00,2013-04-06 02:17:00,
2013-04-05 19:27:00,51.3,24.2,30.08,SSW,202,9.0,21.0,34,0.00,,---,0.00,VWS V14.00,2013-04-06 02:27:00,
2013-04-05 19:37:00,50.8,23.8,30.09,SSW,202,9.0,15.0,34,0.00,,---,0.00,VWS V14.00,2013-04-06 02:37:00,
2013-04-05 19:42:00,50.6,23.6,30.09,SSW,202,8.0,12.0,34,0.00,,---,0.00,VWS V14.00,2013-04-06 02:42:00,
2013-04-05 19:47:00,50.6,23.6,30.09,SSW,202,10.0,11.0,34,0.00,,---,0.00,VWS V14.00,2013-04-06 02:47:00,
2013-04-05 19:52:00,50.5,23.5,30.10,SSW,202,6.0,11.0,34,0.00,,---,0.00,VWS V14.00,2013-04-06 02:52:00,
2013-04-05 19:57:00,50.6,22.9,30.10,SSW,202,7.0,13.0,34,0.00,,---,0.00,VWS V14.00,2013-04-06 02:57:00,
2013-04-05 20:02:00,50.6,23.6,30.10,SSW,202,11.0,11.0,34,0.00,,---,0.00,VWS V14.00,2013-04-06 03:02:00,
2013-04-05 20:07:00,50.6,22.9,30.10,SSW,202,10.0,13.0,34,0.00,,---,0.00,VWS V14.00,2013-04-06 03:07:00,
2013-04-05 20:12:00,50.6,22.2,30.06,SSW,202,13.0,16.0,32,0.00,,---,0.00,VWS V14.00,2013-04-06 03:12:00,
2013-04-05 20:17:00,50.6,23.6,30.06,SSW,202,12.0,13.0,34,0.00,,---,0.00,VWS V14.00,2013-04-06 03:17:00,
2013-04-05 20:22:00,50.5,24.2,30.06,SSW,204,14.0,19.0,36,0.00,,---,0.00,VWS V14.00,2013-04-06 03:22:00,
2013-04-05 20:27:00,50.3,25.4,30.06,SSW,203,9.0,15.0,38,0.00,,---,0.00,VWS V14.00,2013-04-06 03:27:00,
2013-04-05 20:37:00,50.1,23.2,30.06,SW,224,13.0,21.0,34,0.00,,---,0.00,VWS V14.00,2013-04-06 03:37:00,
2013-04-05 20:42:00,50.0,25.1,30.07,SW,224,8.0,20.0,38,0.00,,---,0.00,VWS V14.00,2013-04-06 03:42:00,
2013-04-05 20:47:00,49.6,26.0,30.06,SW,223,14.0,15.0,40,0.00,,---,0.00,VWS V14.00,2013-04-06 03:47:00,
2013-04-05 21:02:00,49.1,26.7,30.06,SSW,207,16.0,21.0,42,0.00,,---,0.00,VWS V14.00,2013-04-06 04:02:00,
2013-04-05 21:07:00,49.0,26.6,30.06,SSW,207,10.0,24.0,42,0.00,,---,0.00,VWS V14.00,2013-04-06 04:07:00,
2013-04-05 21:12:00,48.9,26.5,30.07,SSW,203,13.0,23.0,42,0.00,,---,0.00,VWS V14.00,2013-04-06 04:12:00,
2013-04-05 21:17:00,48.7,26.4,30.07,SSW,212,19.0,22.0,42,0.00,,---,0.00,VWS V14.00,2013-04-06 04:17:00,
2013-04-05 21:22:00,48.5,26.8,30.07,SSW,213,9.0,23.0,42,0.00,,---,0.00,VWS V14.00,2013-04-06 04:22:00,
2013-04-05 21:32:00,48.2,28.1,30.08,SSW,208,12.0,22.0,46,0.00,,---,0.00,VWS V14.00,2013-04-06 04:32:00,
2013-04-05 21:42:00,47.8,28.3,30.08,SSW,207,14.0,18.0,46,0.00,,---,0.00,VWS V14.00,2013-04-06 04:42:00,
2013-04-05 21:52:00,47.7,28.2,30.08,SSW,208,15.0,22.0,46,0.00,,---,0.00,VWS V14.00,2013-04-06 04:52:00,
2013-04-05 21:57:00,47.6,28.6,30.08,SSW,202,13.0,20.0,48,0.00,,---,0.00,VWS V14.00,2013-04-06 04:57:00,
2013-04-05 22:07:00,47.6,28.6,30.08,SSW,207,13.0,21.0,48,0.00,,---,0.00,VWS V14.00,2013-04-06 05:07:00,
2013-04-05 22:12:00,47.5,28.0,30.08,SSW,205,16.0,20.0,46,0.00,,---,0.00,VWS V14.00,2013-04-06 05:12:00,
2013-04-05 22:17:00,47.6,27.6,30.08,SSW,207,14.0,24.0,46,0.00,,---,0.00,VWS V14.00,2013-04-06 05:17:00,
2013-04-05 22:22:00,47.5,27.5,30.08,SSW,207,13.0,22.0,46,0.00,,---,0.00,VWS V14.00,2013-04-06 05:22:00,
2013-04-05 22:27:00,47.5,27.5,30.07,SSW,206,15.0,27.0,46,0.00,,---,0.00,VWS V14.00,2013-04-06 05:27:00,
2013-04-05 22:32:00,47.4,27.9,30.08,SSW,207,18.0,21.0,46,0.00,,---,0.00,VWS V14.00,2013-04-06 05:32:00,
2013-04-05 22:37:00,47.2,27.8,30.08,SSW,209,14.0,24.0,46,0.00,,---,0.00,VWS V14.00,2013-04-06 05:37:00,
2013-04-05 22:42:00,47.3,27.3,30.08,SSW,207,12.0,23.0,46,0.00,,---,0.00,VWS V14.00,2013-04-06 05:42:00,
2013-04-05 22:47:00,47.2,27.2,30.08,SSW,211,13.0,20.0,46,0.00,,---,0.00,VWS V14.00,2013-04-06 05:47:00,
2013-04-05 22:52:00,46.9,27.0,30.08,SSW,211,18.0,19.0,46,0.00,,---,0.00,VWS V14.00,2013-04-06 05:52:00,
2013-04-05 22:57:00,46.8,26.9,30.08,SSW,207,12.0,18.0,46,0.00,,---,0.00,VWS V14.00,2013-04-06 05:57:00,
2013-04-05 23:02:00,46.7,26.8,30.08,SSW,209,10.0,20.0,46,0.00,,---,0.00,VWS V14.00,2013-04-06 06:02:00,
2013-04-05 23:07:00,46.5,26.6,30.08,SSW,210,10.0,20.0,46,0.00,,---,0.00,VWS V14.00,2013-04-06 06:07:00,
2013-04-05 23:12:00,46.5,25.5,30.09,SSW,207,11.0,20.0,44,0.00,,---,0.00,VWS V14.00,2013-04-06 06:12:00,
2013-04-05 23:17:00,46.5,25.5,30.08,SSW,207,11.0,15.0,44,0.00,,---,0.00,VWS V14.00,2013-04-06 06:17:00,
2013-04-05 23:22:00,46.2,24.7,30.09,SSW,208,8.0,14.0,42,0.00,,---,0.00,VWS V14.00,2013-04-06 06:22:00,
2013-04-05 23:27:00,46.2,25.2,30.09,SSW,207,7.0,18.0,44,0.00,,---,0.00,VWS V14.00,2013-04-06 06:27:00,
2013-04-05 23:32:00,46.4,24.3,30.09,SSW,206,8.0,16.0,42,0.00,,---,0.00,VWS V14.00,2013-04-06 06:32:00,
2013-04-05 23:37:00,46.5,24.4,30.09,SSW,203,13.0,15.0,42,0.00,,---,0.00,VWS V14.00,2013-04-06 06:37:00,
2013-04-05 23:42:00,46.8,24.1,30.09,SSW,201,8.0,16.0,40,0.00,,---,0.00,VWS V14.00,2013-04-06 06:42:00,
2013-04-05 23:47:00,46.9,24.1,30.08,SSW,200,12.0,16.0,40,0.00,,---,0.00,VWS V14.00,2013-04-06 06:47:00,
2013-04-05 23:52:00,47.0,24.2,30.08,SSW,198,12.0,18.0,40,0.00,,---,0.00,VWS V14.00,2013-04-06 06:52:00,